createdAt,value
2022-12-25T00:02:11.229Z,9.29
2022-12-25T00:05:15.434Z,9.31
2022-12-25T00:08:18.556Z,9.30
2022-12-25T00:11:22.332Z,9.34
2022-12-25T00:14:25.483Z,9.34
2022-12-25T00:17:29.199Z,9.33
2022-12-25T00:20:33.470Z,9.34
2022-12-25T00:23:37.417Z,9.36
2022-12-25T00:26:40.310Z,9.42
2022-12-25T00:29:43.300Z,9.49
2022-12-25T00:32:46.121Z,9.54
2022-12-25T00:35:59.934Z,9.54
2022-12-25T00:39:03.306Z,9.53
2022-12-25T00:42:21.831Z,9.56
2022-12-25T00:45:25.231Z,9.58
2022-12-25T00:48:29.867Z,9.59
2022-12-25T00:51:34.178Z,9.62
2022-12-25T00:54:37.265Z,9.66
2022-12-25T00:57:40.140Z,9.68
2022-12-25T01:00:43.062Z,9.68
2022-12-25T01:03:46.412Z,9.63
2022-12-25T01:06:50.624Z,9.68
2022-12-25T01:10:11.393Z,9.67
2022-12-25T01:13:14.627Z,9.67
2022-12-25T01:16:17.680Z,9.68
2022-12-25T01:19:20.807Z,9.67
2022-12-25T01:22:25.147Z,9.70
2022-12-25T01:25:28.077Z,9.71
2022-12-25T01:28:30.903Z,9.70
2022-12-25T01:31:33.812Z,9.69
2022-12-25T01:34:36.642Z,9.68
2022-12-25T01:37:41.384Z,9.65
2022-12-25T01:40:44.749Z,9.65
2022-12-25T01:44:03.232Z,9.63
2022-12-25T01:47:07.966Z,9.69
2022-12-25T01:50:11.397Z,9.66
2022-12-25T01:53:16.250Z,9.60
2022-12-25T01:56:19.577Z,9.58
2022-12-25T01:59:25.888Z,9.54
2022-12-25T02:02:29.983Z,9.51
2022-12-25T02:05:34.268Z,9.50
2022-12-25T02:08:38.900Z,9.50
2022-12-25T02:12:00.234Z,9.47
2022-12-25T02:15:06.662Z,9.49
2022-12-25T02:18:18.865Z,9.48
2022-12-25T02:21:44.577Z,9.51
2022-12-25T02:25:05.007Z,9.45
2022-12-25T02:28:16.404Z,9.49
2022-12-25T02:31:28.348Z,9.55
2022-12-25T02:34:39.131Z,9.54
2022-12-25T02:37:50.945Z,9.53
2022-12-25T02:40:58.267Z,9.55
2022-12-25T02:44:23.908Z,9.56
2022-12-25T02:47:45.371Z,9.58
2022-12-25T02:51:06.493Z,9.57
2022-12-25T02:54:31.153Z,9.52
2022-12-25T02:58:03.033Z,9.49
2022-12-25T03:01:28.079Z,9.38
2022-12-25T03:04:49.621Z,9.30
2022-12-25T03:07:53.168Z,9.31
2022-12-25T03:11:19.159Z,9.31
2022-12-25T03:14:39.756Z,9.31
2022-12-25T03:17:44.265Z,9.27
2022-12-25T03:21:04.683Z,9.26
2022-12-25T03:24:33.506Z,9.20
2022-12-25T03:27:36.641Z,9.18
2022-12-25T03:31:03.574Z,9.12
2022-12-25T03:34:51.919Z,9.09
2022-12-25T03:38:46.446Z,9.07
2022-12-25T03:42:11.689Z,8.98
2022-12-25T03:45:41.787Z,9.00
2022-12-25T03:49:08.942Z,8.95
2022-12-25T03:52:34.760Z,8.99
2022-12-25T03:55:54.736Z,9.00
2022-12-25T03:59:31.257Z,8.99
2022-12-25T04:02:51.833Z,9.00
2022-12-25T04:06:12.459Z,9.03
2022-12-25T04:09:34.374Z,9.04
2022-12-25T04:12:54.571Z,9.02
2022-12-25T04:16:15.341Z,8.98
2022-12-25T04:19:36.393Z,9.04
2022-12-25T04:22:56.623Z,9.03
2022-12-25T04:26:18.650Z,9.04
2022-12-25T04:29:38.934Z,9.01
2022-12-25T04:32:59.838Z,9.04
2022-12-25T04:36:11.607Z,9.06
2022-12-25T04:39:14.390Z,9.10
2022-12-25T04:42:18.592Z,9.08
2022-12-25T04:45:21.812Z,9.12
2022-12-25T04:48:25.374Z,9.12
2022-12-25T04:51:28.285Z,9.15
2022-12-25T04:54:30.985Z,9.15
2022-12-25T04:57:35.415Z,9.21
2022-12-25T05:00:38.431Z,9.21
2022-12-25T05:03:41.972Z,9.20
2022-12-25T05:06:45.002Z,9.20
2022-12-25T05:09:47.833Z,9.18
2022-12-25T05:12:51.968Z,9.22
2022-12-25T05:15:55.286Z,9.23
2022-12-25T05:18:58.594Z,9.27
2022-12-25T05:22:01.583Z,9.31
2022-12-25T05:25:04.473Z,9.36
2022-12-25T05:28:09.099Z,9.35
2022-12-25T05:31:12.409Z,9.38
2022-12-25T05:34:15.257Z,9.40
2022-12-25T05:37:17.999Z,9.42
2022-12-25T05:40:20.716Z,9.43
2022-12-25T05:43:26.105Z,9.46
2022-12-25T05:46:29.123Z,9.49
2022-12-25T05:49:34.602Z,9.50
2022-12-25T05:52:37.495Z,9.49
2022-12-25T05:55:43.561Z,9.48
2022-12-25T05:58:47.853Z,9.46
2022-12-25T06:01:50.814Z,9.44
2022-12-25T06:04:53.641Z,9.44
2022-12-25T06:07:56.956Z,9.46
2022-12-25T06:10:59.917Z,9.52
2022-12-25T06:14:04.261Z,9.52
2022-12-25T06:17:07.536Z,9.54
2022-12-25T06:20:11.120Z,9.52
2022-12-25T06:23:14.169Z,9.54
2022-12-25T06:26:20.354Z,9.55
2022-12-25T06:29:24.705Z,9.55
2022-12-25T06:32:27.527Z,9.51
2022-12-25T06:35:30.653Z,9.52
2022-12-25T06:38:33.441Z,9.52
2022-12-25T06:41:36.571Z,9.54
2022-12-25T06:44:40.709Z,9.56
2022-12-25T06:47:43.544Z,9.59
2022-12-25T06:50:46.387Z,9.59
2022-12-25T06:53:49.412Z,9.64
2022-12-25T06:56:52.441Z,9.66
2022-12-25T06:59:57.203Z,9.67
2022-12-25T07:03:00.319Z,9.67
2022-12-25T07:06:03.116Z,9.68
2022-12-25T07:09:05.948Z,9.69
2022-12-25T07:12:15.915Z,9.71
2022-12-25T07:15:20.117Z,9.71
2022-12-25T07:18:23.306Z,9.69
2022-12-25T07:21:26.316Z,9.71
2022-12-25T07:24:29.088Z,9.63
2022-12-25T07:27:32.194Z,9.56
2022-12-25T07:30:36.550Z,9.53
2022-12-25T07:33:39.672Z,9.46
2022-12-25T07:36:42.559Z,9.44
2022-12-25T07:39:45.879Z,9.39
2022-12-25T07:42:48.743Z,9.44
2022-12-25T07:45:57.762Z,9.51
2022-12-25T07:49:01.250Z,9.56
2022-12-25T07:52:04.674Z,9.61
2022-12-25T07:55:08.022Z,9.65
2022-12-25T07:58:13.756Z,9.66
2022-12-25T08:01:21.899Z,9.69
2022-12-25T08:04:25.185Z,9.66
2022-12-25T08:07:28.011Z,9.66
2022-12-25T08:10:30.704Z,9.66
2022-12-25T08:13:34.664Z,9.70
2022-12-25T08:16:41.603Z,9.71
2022-12-25T08:19:44.582Z,9.78
2022-12-25T08:22:47.489Z,9.82
2022-12-25T08:25:50.676Z,9.82
2022-12-25T08:28:53.421Z,9.85
2022-12-25T08:31:57.603Z,9.90
2022-12-25T08:35:00.708Z,9.96
2022-12-25T08:38:03.693Z,10.03
2022-12-25T08:41:06.785Z,10.02
2022-12-25T08:44:09.680Z,9.97
2022-12-25T08:47:14.590Z,9.92
2022-12-25T08:50:17.805Z,9.98
2022-12-25T08:53:21.659Z,10.03
2022-12-25T08:56:24.951Z,10.08
2022-12-25T08:59:27.774Z,10.12
2022-12-25T09:02:32.989Z,10.16
2022-12-25T09:05:36.027Z,10.15
2022-12-25T09:08:45.930Z,10.20
2022-12-25T09:11:51.461Z,10.28
2022-12-25T09:14:54.700Z,10.32
2022-12-25T09:17:59.319Z,10.41
2022-12-25T09:21:07.366Z,10.51
2022-12-25T09:24:10.222Z,10.53
2022-12-25T09:27:13.506Z,10.58
2022-12-25T09:30:16.585Z,10.77
2022-12-25T09:33:21.799Z,11.35
2022-12-25T09:36:24.758Z,12.01
2022-12-25T09:39:27.718Z,12.53
2022-12-25T09:42:32.376Z,13.29
2022-12-25T09:45:38.572Z,13.81
2022-12-25T09:48:48.532Z,14.04
2022-12-25T09:51:58.055Z,13.78
2022-12-25T09:55:07.904Z,13.41
2022-12-25T09:58:13.417Z,13.07
2022-12-25T10:01:22.565Z,12.74
2022-12-25T10:04:41.732Z,12.55
2022-12-25T10:07:51.395Z,12.36
2022-12-25T10:11:01.763Z,12.26
2022-12-25T10:14:17.048Z,12.24
2022-12-25T10:17:33.054Z,12.24
2022-12-25T10:20:46.777Z,12.24
2022-12-25T10:23:54.696Z,12.26
2022-12-25T10:26:57.779Z,12.36
2022-12-25T10:30:03.429Z,12.42
2022-12-25T10:33:06.223Z,12.41
2022-12-25T10:36:11.805Z,12.35
2022-12-25T10:39:18.357Z,12.46
2022-12-25T10:42:32.146Z,12.50
2022-12-25T10:45:44.153Z,12.57
2022-12-25T10:48:50.753Z,12.63
2022-12-25T10:51:55.393Z,12.78
2022-12-25T10:54:58.254Z,13.16
2022-12-25T10:58:02.067Z,13.59
2022-12-25T11:01:07.816Z,14.10
2022-12-25T11:04:19.994Z,14.46
2022-12-25T11:07:27.717Z,14.22
2022-12-25T11:10:32.960Z,14.23
2022-12-25T11:13:40.313Z,14.55
2022-12-25T11:16:43.160Z,14.38
2022-12-25T11:19:53.409Z,13.97
2022-12-25T11:22:57.600Z,13.87
2022-12-25T11:26:02.249Z,13.96
2022-12-25T11:29:19.176Z,14.02
2022-12-25T11:32:28.909Z,14.11
2022-12-25T11:35:38.228Z,14.43
2022-12-25T11:38:42.177Z,15.35
2022-12-25T11:41:45.515Z,15.61
2022-12-25T11:44:52.927Z,15.45
2022-12-25T11:47:58.101Z,15.56
2022-12-25T11:51:03.339Z,16.31
2022-12-25T11:54:17.715Z,17.05
2022-12-25T11:57:22.622Z,17.47
2022-12-25T12:00:25.551Z,18.26
2022-12-25T12:03:32.251Z,19.50
2022-12-25T12:06:46.829Z,19.89
2022-12-25T12:09:59.849Z,20.19
2022-12-25T12:13:19.468Z,20.72
2022-12-25T12:16:22.241Z,20.96
2022-12-25T12:19:27.964Z,21.60
2022-12-25T12:22:30.704Z,21.84
2022-12-25T12:25:40.653Z,21.89
2022-12-25T12:28:46.891Z,22.67
2022-12-25T12:31:52.305Z,22.42
2022-12-25T12:34:56.290Z,21.65
2022-12-25T12:38:02.243Z,20.39
2022-12-25T12:41:09.317Z,19.46
2022-12-25T12:44:13.734Z,18.97
2022-12-25T12:47:30.545Z,18.60
2022-12-25T12:50:37.074Z,20.03
2022-12-25T12:53:41.407Z,22.13
2022-12-25T12:56:56.366Z,23.53
2022-12-25T13:00:11.321Z,25.14
2022-12-25T13:03:32.716Z,26.06
2022-12-25T13:06:41.975Z,26.87
2022-12-25T13:09:59.225Z,26.90
2022-12-25T13:13:11.504Z,27.62
2022-12-25T13:16:23.181Z,27.90
2022-12-25T13:19:28.543Z,27.90
2022-12-25T13:22:33.907Z,27.72
2022-12-25T13:25:36.747Z,27.96
2022-12-25T13:28:40.948Z,28.13
2022-12-25T13:31:43.700Z,28.07
2022-12-25T13:34:46.488Z,25.93
2022-12-25T13:37:49.798Z,26.84
2022-12-25T13:41:13.180Z,27.43
2022-12-25T13:44:22.204Z,27.37
2022-12-25T13:47:27.993Z,27.04
2022-12-25T13:50:32.790Z,25.97
2022-12-25T13:53:35.799Z,24.14
2022-12-25T13:56:38.467Z,22.42
2022-12-25T13:59:45.428Z,21.31
2022-12-25T14:02:48.672Z,20.29
2022-12-25T14:05:57.852Z,19.40
2022-12-25T14:09:01.023Z,18.75
2022-12-25T14:12:04.864Z,18.27
2022-12-25T14:15:16.981Z,17.75
2022-12-25T14:18:22.172Z,17.48
2022-12-25T14:21:29.656Z,17.16
2022-12-25T14:24:35.300Z,16.82
2022-12-25T14:27:38.144Z,16.54
2022-12-25T14:30:44.002Z,16.20
2022-12-25T14:33:48.234Z,15.88
2022-12-25T14:36:52.404Z,15.58
2022-12-25T14:39:57.053Z,15.26
2022-12-25T14:43:02.160Z,14.98
2022-12-25T14:46:07.249Z,14.65
2022-12-25T14:49:25.230Z,14.33
2022-12-25T14:52:31.553Z,14.08
2022-12-25T14:55:34.297Z,13.86
2022-12-25T14:58:42.229Z,13.69
2022-12-25T15:01:52.209Z,13.51
2022-12-25T15:04:55.537Z,13.34
2022-12-25T15:08:03.707Z,13.20
2022-12-25T15:11:06.563Z,13.12
2022-12-25T15:14:09.224Z,13.07
2022-12-25T15:17:21.477Z,13.00
2022-12-25T15:20:31.234Z,12.94
2022-12-25T15:23:33.886Z,12.85
2022-12-25T15:26:36.539Z,12.80
2022-12-25T15:30:08.348Z,12.76
2022-12-25T15:33:03.161Z,12.68
2022-12-25T15:36:06.186Z,12.58
2022-12-25T15:39:08.915Z,12.54
2022-12-25T15:42:13.495Z,12.53
2022-12-25T15:45:21.227Z,12.50
2022-12-25T15:48:25.250Z,12.50
2022-12-25T15:51:27.992Z,12.47
2022-12-25T15:54:30.637Z,12.39
2022-12-25T15:57:35.055Z,12.35
2022-12-25T16:00:37.712Z,12.29
2022-12-25T16:03:41.792Z,12.25
2022-12-25T16:06:44.658Z,12.20
2022-12-25T16:09:47.522Z,12.14
2022-12-25T16:12:50.197Z,12.12
2022-12-25T16:15:52.864Z,12.09
2022-12-25T16:18:56.982Z,12.08
2022-12-25T16:21:59.627Z,12.07
2022-12-25T16:25:02.303Z,12.08
2022-12-25T16:28:06.171Z,12.07
2022-12-25T16:31:09.254Z,12.01
2022-12-25T16:34:13.276Z,11.96
2022-12-25T16:37:15.898Z,11.88
2022-12-25T16:40:18.800Z,11.83
2022-12-25T16:43:24.204Z,11.78
2022-12-25T16:46:27.474Z,11.78
2022-12-25T16:49:31.848Z,11.73
2022-12-25T16:52:35.508Z,11.71
2022-12-25T16:55:38.666Z,11.75
2022-12-25T16:58:41.603Z,11.77
2022-12-25T17:01:44.405Z,11.79
2022-12-25T17:04:49.194Z,11.82
2022-12-25T17:07:52.072Z,11.89
2022-12-25T17:10:54.826Z,11.89
2022-12-25T17:13:58.635Z,11.82
2022-12-25T17:17:01.553Z,11.68
2022-12-25T17:20:07.327Z,11.64
2022-12-25T17:23:11.043Z,11.61
2022-12-25T17:26:13.676Z,11.64
2022-12-25T17:29:21.660Z,11.63
2022-12-25T17:32:24.879Z,11.67
2022-12-25T17:35:29.170Z,11.74
2022-12-25T17:38:32.685Z,11.81
2022-12-25T17:41:35.324Z,11.88
2022-12-25T17:44:37.997Z,11.92
2022-12-25T17:47:40.685Z,12.03
2022-12-25T17:50:44.752Z,12.12
2022-12-25T17:53:50.115Z,12.18
2022-12-25T17:56:52.775Z,12.22
2022-12-25T17:59:55.860Z,12.25
2022-12-25T18:03:02.936Z,12.29
2022-12-25T18:06:13.333Z,12.27
2022-12-25T18:09:15.980Z,12.22
2022-12-25T18:12:19.029Z,12.17
2022-12-25T18:15:21.683Z,12.12
2022-12-25T18:18:24.362Z,12.04
2022-12-25T18:21:28.424Z,11.96
2022-12-25T18:24:31.111Z,11.88
2022-12-25T18:27:33.754Z,11.81
2022-12-25T18:30:39.735Z,11.68
2022-12-25T18:33:42.431Z,11.61
2022-12-25T18:36:46.426Z,11.50
2022-12-25T18:39:49.126Z,11.43
2022-12-25T18:42:59.390Z,11.37
2022-12-25T18:46:07.176Z,11.50
2022-12-25T18:49:10.965Z,11.61
2022-12-25T18:52:50.129Z,11.70
2022-12-25T18:55:41.187Z,11.84
2022-12-25T18:58:44.306Z,11.87
2022-12-25T19:01:47.261Z,11.94
2022-12-25T19:04:50.046Z,12.03
2022-12-25T19:07:54.138Z,12.14
2022-12-25T19:10:56.758Z,12.19
2022-12-25T19:13:59.604Z,12.15
2022-12-25T19:17:02.339Z,12.11
2022-12-25T19:20:06.762Z,12.12
2022-12-25T19:23:10.835Z,12.11
2022-12-25T19:26:14.124Z,12.06
2022-12-25T19:29:16.808Z,12.07
2022-12-25T19:32:19.438Z,11.97
2022-12-25T19:35:22.231Z,11.87
2022-12-25T19:38:26.168Z,11.84
2022-12-25T19:41:28.858Z,11.83
2022-12-25T19:44:31.493Z,11.86
2022-12-25T19:47:34.133Z,11.88
2022-12-25T19:50:37.012Z,11.85
2022-12-25T19:53:41.079Z,11.84
2022-12-25T19:56:44.310Z,11.82
2022-12-25T19:59:46.936Z,11.78
2022-12-25T20:02:49.603Z,11.75
2022-12-25T20:05:52.958Z,11.76
2022-12-25T20:08:59.736Z,11.75
2022-12-25T20:12:02.821Z,11.70
2022-12-25T20:15:06.019Z,11.69
2022-12-25T20:18:08.662Z,11.71
2022-12-25T20:21:14.204Z,11.74
2022-12-25T20:24:18.257Z,11.83
2022-12-25T20:27:21.011Z,11.87
2022-12-25T20:30:23.678Z,11.97
2022-12-25T20:33:26.408Z,12.00
2022-12-25T20:36:34.627Z,12.08
2022-12-25T20:39:41.219Z,12.13
2022-12-25T20:42:44.224Z,12.10
2022-12-25T20:45:46.910Z,12.18
2022-12-25T20:48:49.559Z,12.19
2022-12-25T20:51:52.584Z,12.24
2022-12-25T20:54:56.782Z,12.22
2022-12-25T20:57:59.433Z,12.24
2022-12-25T21:01:06.361Z,12.21
2022-12-25T21:04:14.453Z,12.25
2022-12-25T21:07:18.759Z,12.29
2022-12-25T21:10:23.105Z,12.30
2022-12-25T21:13:26.120Z,12.40
2022-12-25T21:16:28.880Z,12.38
2022-12-25T21:19:31.596Z,12.35
2022-12-25T21:22:34.551Z,12.36
2022-12-25T21:25:38.756Z,12.31
2022-12-25T21:28:41.842Z,12.27
2022-12-25T21:32:02.222Z,12.27
2022-12-25T21:35:05.622Z,12.26
2022-12-25T21:38:08.345Z,12.31
2022-12-25T21:41:14.824Z,12.24
2022-12-25T21:44:17.941Z,12.15
2022-12-25T21:47:20.618Z,12.12
2022-12-25T21:50:40.920Z,12.11
2022-12-25T21:53:43.584Z,12.08
2022-12-25T21:56:49.765Z,12.04
2022-12-25T21:59:52.419Z,12.10
2022-12-25T22:02:55.431Z,12.23
2022-12-25T22:06:21.413Z,12.25
2022-12-25T22:09:25.001Z,12.28
2022-12-25T22:12:46.729Z,12.29
2022-12-25T22:16:07.129Z,12.37
2022-12-25T22:19:27.830Z,12.41
2022-12-25T22:22:31.782Z,12.50
2022-12-25T22:25:34.408Z,12.50
2022-12-25T22:28:38.387Z,12.54
2022-12-25T22:31:46.631Z,12.52
2022-12-25T22:34:49.920Z,12.52
2022-12-25T22:37:53.875Z,12.57
2022-12-25T22:40:56.569Z,12.63
2022-12-25T22:44:17.205Z,12.68
2022-12-25T22:47:20.676Z,12.74
2022-12-25T22:50:23.299Z,12.85
2022-12-25T22:53:25.973Z,12.78
2022-12-25T22:56:28.670Z,12.66
2022-12-25T22:59:33.675Z,12.54
2022-12-25T23:02:36.571Z,12.42
2022-12-25T23:05:39.453Z,12.26
2022-12-25T23:08:42.103Z,12.14
2022-12-25T23:11:45.221Z,11.97
2022-12-25T23:14:48.309Z,11.93
2022-12-25T23:18:10.721Z,11.87
2022-12-25T23:21:28.789Z,11.91
2022-12-25T23:24:49.242Z,11.85
2022-12-25T23:27:51.901Z,11.74
2022-12-25T23:30:56.617Z,11.75
2022-12-25T23:34:01.724Z,11.77
2022-12-25T23:37:07.335Z,11.80
2022-12-25T23:40:12.689Z,11.93
2022-12-25T23:43:17.515Z,12.00
2022-12-25T23:46:23.638Z,12.09
2022-12-25T23:49:29.484Z,12.22
2022-12-25T23:52:34.213Z,12.36
2022-12-25T23:55:38.950Z,12.42
2022-12-25T23:58:45.491Z,12.38
